createdAt,value
2018-03-03T00:00:04.843Z,1
2018-03-03T00:05:02.492Z,1
2018-03-03T00:10:03.068Z,0
2018-03-03T00:15:02.538Z,0
2018-03-03T00:20:03.033Z,1
2018-03-03T00:25:02.601Z,1
2018-03-03T00:30:03.105Z,1
2018-03-03T00:35:02.747Z,1
2018-03-03T00:40:03.396Z,1
2018-03-03T00:45:02.947Z,1
2018-03-03T00:50:03.416Z,1
2018-03-03T00:55:02.938Z,1
2018-03-03T01:00:03.384Z,1
2018-03-03T01:05:03.056Z,0
2018-03-03T01:10:02.594Z,1
2018-03-03T01:15:03.114Z,0
2018-03-03T01:20:02.668Z,0
2018-03-03T01:25:03.176Z,0
2018-03-03T01:30:02.660Z,0
2018-03-03T01:35:02.849Z,1
2018-03-03T01:40:03.395Z,1
2018-03-03T01:45:02.893Z,0
2018-03-03T01:50:03.392Z,1
2018-03-03T01:55:02.804Z,0
2018-03-03T02:00:03.275Z,1
2018-03-03T02:05:02.743Z,1
2018-03-03T02:10:03.215Z,1
2018-03-03T02:15:02.703Z,1
2018-03-03T02:20:03.179Z,1
2018-03-03T02:25:02.696Z,1
2018-03-03T02:30:03.185Z,1
2018-03-03T02:35:02.810Z,1
2018-03-03T02:40:03.344Z,1
2018-03-03T02:45:02.797Z,1
2018-03-03T02:50:03.352Z,1
2018-03-03T02:55:02.737Z,1
2018-03-03T03:00:03.275Z,1
2018-03-03T03:05:02.765Z,1
2018-03-03T03:10:03.311Z,1
2018-03-03T03:15:02.853Z,1
2018-03-03T03:20:03.385Z,1
2018-03-03T03:25:02.795Z,1
2018-03-03T03:30:03.246Z,1
2018-03-03T03:35:02.730Z,1
2018-03-03T03:40:03.260Z,1
2018-03-03T03:45:02.723Z,1
2018-03-03T03:50:03.222Z,1
2018-03-03T03:55:02.711Z,1
2018-03-03T04:00:03.496Z,1
2018-03-03T04:05:02.992Z,1
2018-03-03T04:10:02.520Z,1
2018-03-03T04:15:03.122Z,1
2018-03-03T04:20:02.569Z,1
2018-03-03T04:25:03.026Z,1
2018-03-03T04:30:02.543Z,1
2018-03-03T04:35:02.969Z,1
2018-03-03T04:40:02.547Z,1
2018-03-03T04:45:03.078Z,1
2018-03-03T04:50:02.663Z,1
2018-03-03T04:55:03.073Z,1
2018-03-03T05:00:02.536Z,1
2018-03-03T05:05:03.035Z,1
2018-03-03T05:10:02.565Z,1
2018-03-03T05:15:02.966Z,1
2018-03-03T05:20:03.394Z,1
2018-03-03T05:25:02.915Z,1
2018-03-03T05:30:02.986Z,1
2018-03-03T05:35:02.507Z,1
2018-03-03T05:40:03.011Z,1
2018-03-03T05:45:02.533Z,1
2018-03-03T05:50:03.033Z,3
2018-03-03T05:55:03.456Z,6
2018-03-03T06:00:02.960Z,13
2018-03-03T06:05:03.469Z,31
2018-03-03T06:10:02.933Z,48
2018-03-03T06:15:03.406Z,60
2018-03-03T06:20:02.904Z,65
2018-03-03T06:25:03.436Z,95
2018-03-03T06:30:02.900Z,137
2018-03-03T06:35:03.399Z,260
2018-03-03T06:40:02.879Z,311
2018-03-03T06:45:03.374Z,399
2018-03-03T06:50:02.838Z,503
2018-03-03T06:55:03.588Z,579
2018-03-03T07:00:03.105Z,673
2018-03-03T07:05:02.510Z,748
2018-03-03T07:10:03.054Z,1000
2018-03-03T07:15:02.548Z,1000
2018-03-03T07:20:03.003Z,1000
2018-03-03T07:25:02.462Z,1000
2018-03-03T07:30:02.948Z,1000
2018-03-03T07:35:02.570Z,1000
2018-03-03T07:40:03.102Z,2000
2018-03-03T07:45:02.623Z,2000
2018-03-03T07:50:03.082Z,1000
2018-03-03T07:55:02.524Z,2000
2018-03-03T08:00:03.286Z,2000
2018-03-03T08:05:02.703Z,1000
2018-03-03T08:10:03.317Z,1000
2018-03-03T08:15:02.803Z,2000
2018-03-03T08:20:03.331Z,2000
2018-03-03T08:25:02.775Z,2000
2018-03-03T08:30:03.380Z,3000
2018-03-03T08:35:02.848Z,3000
2018-03-03T08:40:03.364Z,3000
2018-03-03T08:45:02.900Z,3000
2018-03-03T08:50:03.412Z,4000
2018-03-03T08:55:02.805Z,4000
2018-03-03T09:00:03.323Z,3000
2018-03-03T09:05:02.793Z,4000
2018-03-03T09:10:03.371Z,3000
2018-03-03T09:15:02.890Z,4000
2018-03-03T09:20:03.399Z,4000
2018-03-03T09:25:02.832Z,3000
2018-03-03T09:30:03.374Z,3000
2018-03-03T09:35:02.934Z,3000
2018-03-03T09:40:02.494Z,3000
2018-03-03T09:45:02.956Z,3000
2018-03-03T09:50:03.453Z,3000
2018-03-03T09:55:02.847Z,4000
2018-03-03T10:00:03.359Z,4000
2018-03-03T10:05:02.864Z,4000
2018-03-03T10:10:03.386Z,3000
2018-03-03T10:15:02.851Z,3000
2018-03-03T10:20:02.508Z,3000
2018-03-03T10:25:03.011Z,3000
2018-03-03T10:30:02.503Z,2000
2018-03-03T10:35:02.992Z,2000
2018-03-03T10:40:02.509Z,3000
2018-03-03T10:45:02.993Z,3000
2018-03-03T10:50:02.605Z,2000
2018-03-03T10:55:02.987Z,2000
2018-03-03T11:00:02.505Z,2000
2018-03-03T11:05:03.017Z,2000
2018-03-03T11:10:02.603Z,2000
2018-03-03T11:15:03.111Z,2000
2018-03-03T11:20:02.592Z,2000
2018-03-03T11:25:03.091Z,2000
2018-03-03T11:30:02.581Z,2000
2018-03-03T11:35:03.072Z,3000
2018-03-03T11:40:02.616Z,3000
2018-03-03T11:45:03.045Z,3000
2018-03-03T11:50:02.562Z,4000
2018-03-03T11:55:03.109Z,3000
2018-03-03T12:00:02.512Z,3000
2018-03-03T12:05:02.945Z,3000
2018-03-03T12:10:02.562Z,3000
2018-03-03T12:15:03.073Z,4000
2018-03-03T12:20:02.582Z,3000
2018-03-03T12:25:03.111Z,3000
2018-03-03T12:30:02.636Z,3000
2018-03-03T12:35:03.094Z,3000
2018-03-03T12:40:02.552Z,3000
2018-03-03T12:45:03.051Z,3000
2018-03-03T12:50:02.611Z,2000
2018-03-03T12:55:03.083Z,3000
2018-03-03T13:00:02.599Z,3000
2018-03-03T13:05:03.131Z,3000
2018-03-03T13:10:02.729Z,3000
2018-03-03T13:15:03.210Z,3000
2018-03-03T13:20:02.712Z,3000
2018-03-03T13:25:03.207Z,3000
2018-03-03T13:30:02.700Z,3000
2018-03-03T13:35:03.120Z,4000
2018-03-03T13:40:02.595Z,4000
2018-03-03T13:45:03.067Z,4000
2018-03-03T13:50:02.626Z,3000
2018-03-03T13:55:03.127Z,3000
2018-03-03T14:00:02.512Z,3000
2018-03-03T14:05:02.976Z,3000
2018-03-03T14:10:02.523Z,3000
2018-03-03T14:15:03.001Z,4000
2018-03-03T14:20:02.487Z,3000
2018-03-03T14:25:03.005Z,3000
2018-03-03T14:30:02.488Z,2000
2018-03-03T14:35:02.998Z,2000
2018-03-03T14:40:02.594Z,2000
2018-03-03T14:45:03.078Z,2000
2018-03-03T14:50:02.632Z,2000
2018-03-03T14:55:03.113Z,2000
2018-03-03T15:00:02.578Z,2000
2018-03-03T15:05:03.079Z,2000
2018-03-03T15:10:02.664Z,2000
2018-03-03T15:15:03.105Z,2000
2018-03-03T15:20:02.936Z,2000
2018-03-03T15:25:03.468Z,1000
2018-03-03T15:30:02.976Z,1000
2018-03-03T15:35:02.483Z,1000
2018-03-03T15:40:02.987Z,1000
2018-03-03T15:45:03.550Z,1000
2018-03-03T15:50:03.231Z,1000
2018-03-03T15:55:02.735Z,1000
2018-03-03T16:00:03.251Z,1000
2018-03-03T16:05:02.859Z,2000
2018-03-03T16:10:03.437Z,1000
2018-03-03T16:15:02.943Z,1000
2018-03-03T16:20:02.504Z,1000
2018-03-03T16:25:03.018Z,1000
2018-03-03T16:30:02.468Z,1000
2018-03-03T16:35:03.007Z,886
2018-03-03T16:40:02.535Z,794
2018-03-03T16:45:03.183Z,699
2018-03-03T16:50:02.837Z,613
2018-03-03T16:55:03.386Z,540
2018-03-03T17:00:02.862Z,418
2018-03-03T17:05:03.430Z,419
2018-03-03T17:10:03.008Z,156
2018-03-03T17:15:02.611Z,95
2018-03-03T17:20:03.407Z,64
2018-03-03T17:25:02.974Z,55
2018-03-03T17:30:03.397Z,42
2018-03-03T17:35:02.908Z,30
2018-03-03T17:40:02.598Z,14
2018-03-03T17:45:03.275Z,7
2018-03-03T17:50:03.141Z,4
2018-03-03T17:55:02.610Z,2
2018-03-03T18:00:03.138Z,1
2018-03-03T18:05:02.646Z,1
2018-03-03T18:10:03.179Z,1
2018-03-03T18:15:02.666Z,1
2018-03-03T18:20:03.246Z,1
2018-03-03T18:25:02.734Z,1
2018-03-03T18:30:03.273Z,1
2018-03-03T18:35:02.788Z,1
2018-03-03T18:40:03.386Z,1
2018-03-03T18:45:02.846Z,1
2018-03-03T18:50:03.324Z,1
2018-03-03T18:55:02.792Z,1
2018-03-03T19:00:03.308Z,1
2018-03-03T19:05:02.842Z,1
2018-03-03T19:10:03.479Z,1
2018-03-03T19:15:02.997Z,1
2018-03-03T19:20:02.691Z,1
2018-03-03T19:25:03.257Z,1
2018-03-03T19:30:02.791Z,1
2018-03-03T19:35:03.273Z,1
2018-03-03T19:40:02.792Z,1
2018-03-03T19:45:03.274Z,1
2018-03-03T19:50:02.989Z,1
2018-03-03T19:55:02.543Z,1
2018-03-03T20:00:02.999Z,0
2018-03-03T20:05:02.554Z,1
2018-03-03T20:10:03.222Z,1
2018-03-03T20:15:02.807Z,1
2018-03-03T20:20:03.310Z,1
2018-03-03T20:25:02.876Z,1
2018-03-03T20:30:03.467Z,1
2018-03-03T20:35:03.100Z,1
2018-03-03T20:40:02.658Z,1
2018-03-03T20:45:03.198Z,1
2018-03-03T20:50:02.741Z,1
2018-03-03T20:55:03.425Z,1
2018-03-03T21:00:02.938Z,1
2018-03-03T21:05:03.443Z,1
2018-03-03T21:10:03.036Z,1
2018-03-03T21:15:02.635Z,1
2018-03-03T21:20:03.258Z,1
2018-03-03T21:25:02.759Z,1
2018-03-03T21:30:03.293Z,1
2018-03-03T21:35:02.804Z,1
2018-03-03T21:40:03.421Z,1
2018-03-03T21:45:02.927Z,1
2018-03-03T21:50:03.454Z,1
2018-03-03T21:55:03.018Z,1
2018-03-03T22:00:03.810Z,1
2018-03-03T22:05:03.322Z,1
2018-03-03T22:10:02.884Z,1
2018-03-03T22:15:03.466Z,1
2018-03-03T22:20:03.251Z,1
2018-03-03T22:25:02.816Z,1
2018-03-03T22:30:03.373Z,1
2018-03-03T22:35:02.856Z,1
2018-03-03T22:40:03.382Z,1
2018-03-03T22:45:02.817Z,1
2018-03-03T22:50:03.357Z,1
2018-03-03T22:55:02.980Z,0
2018-03-03T23:00:02.572Z,1
2018-03-03T23:05:03.085Z,1
2018-03-03T23:10:02.668Z,1
2018-03-03T23:15:03.167Z,1
2018-03-03T23:20:02.776Z,1
2018-03-03T23:25:03.287Z,1
2018-03-03T23:30:02.824Z,1
2018-03-03T23:35:03.331Z,1
2018-03-03T23:40:03.171Z,1
2018-03-03T23:45:02.604Z,1
2018-03-03T23:50:03.133Z,1
2018-03-03T23:55:02.643Z,1
